Airfield :
LOGIN :

Register | Disclaimer

   EN    FR    IT 

 










Legend :    VFR   Marginal VFR   IFR   Intensive IFR   Very Intensive IFR
Visi :
Ceiling :
>= 8 km
>= 3000ft
5 to 8 km
1000 to 3000 ft
1500m to 5 km
500 to 1000 ft
800 to 1500m
200 to 500 ft
< 800m
< 200 ft
Symbols :   Thunderstorms  Fog  Heavy snow  Heavy precipitations  Wind > 20 kt
SIGMETs :     Misc.  Thunderstorms  Icing  Turbulence  Mountain Waves  Volcanic Ashes






- Airport Elevation : 37 ft
- IATA code : HLY


EGOV - RAF Valley

CURRENT METAR :
  • 241050Z 25005KT 9999 FEW008 SCT016 OVC021 08/07 Q1023 TEMPO SCT011 BKN021 RMK WHT TEMPO GRN

EXPIRED METARs :
  • 241021Z 28005KT 9999 6000W -DZ FEW008 SCT013 OVC016 07/07 Q1023 TEMPO 9999 NSW BKN020 RMK GRN TEMPO WHT
  • 240950Z 28004KT 9999 7000NW -DZ FEW007 BKN013 OVC020 07/07 Q1023 TEMPO 9999 NSW BKN020 RMK GRN TEMPO WHT
  • 240920Z 29004KT 9999 FEW007 BKN013 OVC019 07/06 Q1023 TEMPO BKN019 RMK GRN TEMPO WHT
  • 240850Z 29006KT 9999 FEW009 SCT012 BKN014 07/06 Q1023 TEMPO FEW012 BKN019 RMK GRN TEMPO WHT

TAF TAF EGOV
Valid from the 24 at 09:00 until the 24 at 18:00 UTC


240743Z 2409/2418 27005KT 4000 BR BKN007
BECMG 2409/2410 9999 NSW FEW018
TEMPO 2410/2418 6000 BR BKN018
PROB30
TEMPO 2410/2418 SCT011



MET'MAP, your aeronautical weather chart ! - Copyright ORBIFLY December 2007 - Disclaimer

ORBIFLY MET'MAP TEAM :

Programming & Development : Alexandra Zaïnal
Concept & original design : Baudouin d'Aumeries
Assistance for programming : Marc-Olivier Méhu
Technical & hardware support : Manuel Goepfert

Contact : metmap@orbifly.com




SOURCES & CREDITS :

   NOAA